sensor_id;sensor_type;location;lat;lon;timestamp;P1;durP1;ratioP1;P2;durP2;ratioP2
7759;SDS011;3924;48.830;9.262;2022-08-03T00:00:24;3.60;;;2.23;;
7759;SDS011;3924;48.830;9.262;2022-08-03T00:02:51;2.60;;;1.90;;
7759;SDS011;3924;48.830;9.262;2022-08-03T00:05:18;5.90;;;2.60;;
7759;SDS011;3924;48.830;9.262;2022-08-03T00:07:44;4.57;;;1.93;;
7759;SDS011;3924;48.830;9.262;2022-08-03T00:10:13;2.00;;;1.90;;
7759;SDS011;3924;48.830;9.262;2022-08-03T00:12:40;4.80;;;2.20;;
7759;SDS011;3924;48.830;9.262;2022-08-03T00:15:06;2.27;;;2.07;;
7759;SDS011;3924;48.830;9.262;2022-08-03T00:17:41;2.23;;;2.10;;
7759;SDS011;3924;48.830;9.262;2022-08-03T00:20:19;4.00;;;2.00;;
7759;SDS011;3924;48.830;9.262;2022-08-03T00:22:46;1.90;;;1.70;;
7759;SDS011;3924;48.830;9.262;2022-08-03T00:25:12;5.47;;;2.07;;
7759;SDS011;3924;48.830;9.262;2022-08-03T00:27:39;3.20;;;2.40;;
7759;SDS011;3924;48.830;9.262;2022-08-03T00:30:05;2.23;;;1.70;;
7759;SDS011;3924;48.830;9.262;2022-08-03T00:32:32;2.67;;;2.10;;
7759;SDS011;3924;48.830;9.262;2022-08-03T00:34:59;2.70;;;2.00;;
7759;SDS011;3924;48.830;9.262;2022-08-03T00:37:33;2.13;;;1.97;;
7759;SDS011;3924;48.830;9.262;2022-08-03T00:40:07;2.20;;;2.00;;
7759;SDS011;3924;48.830;9.262;2022-08-03T00:43:00;4.70;;;2.03;;
7759;SDS011;3924;48.830;9.262;2022-08-03T00:45:27;2.30;;;2.10;;
7759;SDS011;3924;48.830;9.262;2022-08-03T00:47:59;2.00;;;1.90;;
7759;SDS011;3924;48.830;9.262;2022-08-03T00:50:27;2.40;;;2.10;;
7759;SDS011;3924;48.830;9.262;2022-08-03T00:53:00;2.60;;;1.90;;
7759;SDS011;3924;48.830;9.262;2022-08-03T00:55:28;2.30;;;2.10;;
7759;SDS011;3924;48.830;9.262;2022-08-03T00:57:55;1.90;;;1.80;;
7759;SDS011;3924;48.830;9.262;2022-08-03T01:00:23;2.83;;;1.93;;
7759;SDS011;3924;48.830;9.262;2022-08-03T01:02:51;2.20;;;2.00;;
7759;SDS011;3924;48.830;9.262;2022-08-03T01:05:18;2.17;;;1.90;;
7759;SDS011;3924;48.830;9.262;2022-08-03T01:08:18;3.77;;;1.97;;
7759;SDS011;3924;48.830;9.262;2022-08-03T01:10:57;3.33;;;2.00;;
7759;SDS011;3924;48.830;9.262;2022-08-03T01:30:29;1.93;;;1.83;;
7759;SDS011;3924;48.830;9.262;2022-08-03T01:32:59;3.87;;;2.30;;
7759;SDS011;3924;48.830;9.262;2022-08-03T01:35:34;2.27;;;2.00;;
7759;SDS011;3924;48.830;9.262;2022-08-03T01:38:26;3.23;;;2.10;;
7759;SDS011;3924;48.830;9.262;2022-08-03T01:41:03;2.07;;;1.90;;
7759;SDS011;3924;48.830;9.262;2022-08-03T01:43:33;2.20;;;2.10;;
7759;SDS011;3924;48.830;9.262;2022-08-03T01:46:21;3.00;;;2.60;;
7759;SDS011;3924;48.830;9.262;2022-08-03T01:48:50;2.57;;;2.37;;
7759;SDS011;3924;48.830;9.262;2022-08-03T01:51:18;2.40;;;2.30;;
7759;SDS011;3924;48.830;9.262;2022-08-03T01:53:46;2.10;;;2.00;;
7759;SDS011;3924;48.830;9.262;2022-08-03T01:56:15;3.53;;;2.03;;
7759;SDS011;3924;48.830;9.262;2022-08-03T01:58:44;2.43;;;2.23;;
7759;SDS011;3924;48.830;9.262;2022-08-03T02:01:13;2.27;;;2.17;;
7759;SDS011;3924;48.830;9.262;2022-08-03T02:03:42;2.60;;;2.20;;
7759;SDS011;3924;48.830;9.262;2022-08-03T02:06:26;2.83;;;1.97;;
7759;SDS011;3924;48.830;9.262;2022-08-03T02:09:15;3.10;;;2.17;;
7759;SDS011;3924;48.830;9.262;2022-08-03T02:11:45;2.40;;;2.20;;
7759;SDS011;3924;48.830;9.262;2022-08-03T02:14:12;2.83;;;1.90;;
7759;SDS011;3924;48.830;9.262;2022-08-03T02:16:40;2.10;;;2.00;;
7759;SDS011;3924;48.830;9.262;2022-08-03T02:19:08;2.60;;;2.40;;
7759;SDS011;3924;48.830;9.262;2022-08-03T02:21:36;2.33;;;2.23;;
7759;SDS011;3924;48.830;9.262;2022-08-03T02:24:23;2.57;;;2.37;;
7759;SDS011;3924;48.830;9.262;2022-08-03T02:26:50;2.37;;;2.17;;
7759;SDS011;3924;48.830;9.262;2022-08-03T02:29:20;2.00;;;1.90;;
7759;SDS011;3924;48.830;9.262;2022-08-03T02:32:06;3.03;;;2.07;;
7759;SDS011;3924;48.830;9.262;2022-08-03T02:34:35;1.97;;;1.77;;
7759;SDS011;3924;48.830;9.262;2022-08-03T02:37:02;1.90;;;1.80;;
7759;SDS011;3924;48.830;9.262;2022-08-03T02:39:30;3.73;;;2.20;;
7759;SDS011;3924;48.830;9.262;2022-08-03T02:42:00;2.00;;;1.90;;
7759;SDS011;3924;48.830;9.262;2022-08-03T02:44:29;2.57;;;1.97;;
7759;SDS011;3924;48.830;9.262;2022-08-03T02:46:59;2.40;;;2.20;;
7759;SDS011;3924;48.830;9.262;2022-08-03T02:49:29;2.10;;;2.00;;
7759;SDS011;3924;48.830;9.262;2022-08-03T02:52:17;2.03;;;1.90;;
7759;SDS011;3924;48.830;9.262;2022-08-03T02:54:46;7.33;;;2.10;;
7759;SDS011;3924;48.830;9.262;2022-08-03T02:57:17;2.00;;;1.90;;
7759;SDS011;3924;48.830;9.262;2022-08-03T02:59:46;2.20;;;2.07;;
7759;SDS011;3924;48.830;9.262;2022-08-03T03:02:14;1.70;;;1.60;;
7759;SDS011;3924;48.830;9.262;2022-08-03T03:04:43;1.97;;;1.87;;
7759;SDS011;3924;48.830;9.262;2022-08-03T03:07:31;2.03;;;1.90;;
7759;SDS011;3924;48.830;9.262;2022-08-03T03:10:16;2.77;;;2.17;;
7759;SDS011;3924;48.830;9.262;2022-08-03T03:12:43;4.20;;;2.30;;
7759;SDS011;3924;48.830;9.262;2022-08-03T03:15:11;2.87;;;2.27;;
7759;SDS011;3924;48.830;9.262;2022-08-03T03:17:38;2.20;;;1.80;;
7759;SDS011;3924;48.830;9.262;2022-08-03T03:20:04;3.57;;;2.00;;
7759;SDS011;3924;48.830;9.262;2022-08-03T03:22:32;1.87;;;1.77;;
7759;SDS011;3924;48.830;9.262;2022-08-03T03:25:00;2.53;;;2.20;;
7759;SDS011;3924;48.830;9.262;2022-08-03T03:27:27;2.20;;;2.10;;
7759;SDS011;3924;48.830;9.262;2022-08-03T03:29:54;2.20;;;2.00;;
7759;SDS011;3924;48.830;9.262;2022-08-03T03:32:22;1.87;;;1.77;;
7759;SDS011;3924;48.830;9.262;2022-08-03T03:34:49;2.23;;;2.03;;
7759;SDS011;3924;48.830;9.262;2022-08-03T03:37:16;2.70;;;2.00;;
7759;SDS011;3924;48.830;9.262;2022-08-03T03:39:42;2.37;;;2.17;;
7759;SDS011;3924;48.830;9.262;2022-08-03T03:42:09;2.20;;;2.00;;
7759;SDS011;3924;48.830;9.262;2022-08-03T03:44:36;2.43;;;2.23;;
7759;SDS011;3924;48.830;9.262;2022-08-03T03:47:02;2.27;;;2.07;;
7759;SDS011;3924;48.830;9.262;2022-08-03T03:49:30;2.23;;;2.13;;
7759;SDS011;3924;48.830;9.262;2022-08-03T03:51:56;2.50;;;2.20;;
7759;SDS011;3924;48.830;9.262;2022-08-03T03:54:23;5.73;;;2.13;;
7759;SDS011;3924;48.830;9.262;2022-08-03T03:56:53;2.13;;;1.90;;
7759;SDS011;3924;48.830;9.262;2022-08-03T03:59:19;2.13;;;1.90;;
7759;SDS011;3924;48.830;9.262;2022-08-03T04:01:46;2.67;;;2.07;;
7759;SDS011;3924;48.830;9.262;2022-08-03T04:04:24;3.00;;;2.70;;
7759;SDS011;3924;48.830;9.262;2022-08-03T04:07:08;2.33;;;1.90;;
7759;SDS011;3924;48.830;9.262;2022-08-03T04:09:54;2.53;;;2.30;;
7759;SDS011;3924;48.830;9.262;2022-08-03T04:12:41;2.40;;;2.20;;
7759;SDS011;3924;48.830;9.262;2022-08-03T04:15:16;4.53;;;2.80;;
7759;SDS011;3924;48.830;9.262;2022-08-03T04:17:46;3.47;;;1.77;;
7759;SDS011;3924;48.830;9.262;2022-08-03T04:20:15;3.40;;;2.57;;
7759;SDS011;3924;48.830;9.262;2022-08-03T04:22:48;2.47;;;2.30;;
7759;SDS011;3924;48.830;9.262;2022-08-03T04:25:16;3.37;;;2.30;;
7759;SDS011;3924;48.830;9.262;2022-08-03T04:27:46;3.10;;;2.23;;
7759;SDS011;3924;48.830;9.262;2022-08-03T04:30:37;3.87;;;2.10;;
7759;SDS011;3924;48.830;9.262;2022-08-03T04:33:05;3.67;;;2.77;;
7759;SDS011;3924;48.830;9.262;2022-08-03T04:35:33;1.93;;;1.83;;
7759;SDS011;3924;48.830;9.262;2022-08-03T04:38:21;2.93;;;2.30;;
7759;SDS011;3924;48.830;9.262;2022-08-03T04:40:50;2.77;;;2.40;;
7759;SDS011;3924;48.830;9.262;2022-08-03T04:43:17;3.60;;;2.40;;
7759;SDS011;3924;48.830;9.262;2022-08-03T04:45:47;3.70;;;2.70;;
7759;SDS011;3924;48.830;9.262;2022-08-03T04:48:15;2.93;;;2.63;;
7759;SDS011;3924;48.830;9.262;2022-08-03T04:50:42;7.03;;;2.63;;
7759;SDS011;3924;48.830;9.262;2022-08-03T04:53:09;3.17;;;2.50;;
7759;SDS011;3924;48.830;9.262;2022-08-03T04:55:35;4.80;;;2.63;;
7759;SDS011;3924;48.830;9.262;2022-08-03T04:58:02;2.63;;;2.20;;
7759;SDS011;3924;48.830;9.262;2022-08-03T05:00:29;2.77;;;2.33;;
7759;SDS011;3924;48.830;9.262;2022-08-03T05:02:56;3.53;;;2.73;;
7759;SDS011;3924;48.830;9.262;2022-08-03T05:05:22;2.67;;;2.30;;
7759;SDS011;3924;48.830;9.262;2022-08-03T05:07:49;2.53;;;2.37;;
7759;SDS011;3924;48.830;9.262;2022-08-03T05:10:16;5.87;;;2.43;;
7759;SDS011;3924;48.830;9.262;2022-08-03T05:12:44;3.17;;;2.40;;
7759;SDS011;3924;48.830;9.262;2022-08-03T05:15:11;8.87;;;2.67;;
7759;SDS011;3924;48.830;9.262;2022-08-03T05:17:38;2.70;;;2.50;;
7759;SDS011;3924;48.830;9.262;2022-08-03T05:20:05;3.17;;;2.27;;
7759;SDS011;3924;48.830;9.262;2022-08-03T05:22:32;2.70;;;2.50;;
7759;SDS011;3924;48.830;9.262;2022-08-03T05:24:59;3.63;;;2.53;;
7759;SDS011;3924;48.830;9.262;2022-08-03T05:27:26;3.47;;;2.43;;
7759;SDS011;3924;48.830;9.262;2022-08-03T05:29:53;2.57;;;2.37;;
7759;SDS011;3924;48.830;9.262;2022-08-03T05:32:19;3.07;;;2.77;;
7759;SDS011;3924;48.830;9.262;2022-08-03T05:34:46;3.23;;;2.70;;
7759;SDS011;3924;48.830;9.262;2022-08-03T05:37:12;5.30;;;2.80;;
7759;SDS011;3924;48.830;9.262;2022-08-03T05:39:39;4.33;;;2.50;;
7759;SDS011;3924;48.830;9.262;2022-08-03T05:42:05;2.90;;;2.53;;
7759;SDS011;3924;48.830;9.262;2022-08-03T05:44:32;3.00;;;2.70;;
7759;SDS011;3924;48.830;9.262;2022-08-03T05:46:58;2.43;;;2.23;;
7759;SDS011;3924;48.830;9.262;2022-08-03T05:49:25;3.07;;;2.50;;
7759;SDS011;3924;48.830;9.262;2022-08-03T05:51:51;4.63;;;2.53;;
7759;SDS011;3924;48.830;9.262;2022-08-03T05:54:38;6.47;;;2.70;;
7759;SDS011;3924;48.830;9.262;2022-08-03T05:57:23;2.67;;;2.47;;
7759;SDS011;3924;48.830;9.262;2022-08-03T05:59:50;5.57;;;2.33;;
7759;SDS011;3924;48.830;9.262;2022-08-03T06:02:23;3.93;;;2.57;;
7759;SDS011;3924;48.830;9.262;2022-08-03T06:04:50;3.47;;;2.60;;
7759;SDS011;3924;48.830;9.262;2022-08-03T06:07:17;2.77;;;2.50;;
7759;SDS011;3924;48.830;9.262;2022-08-03T06:09:43;6.17;;;2.60;;
7759;SDS011;3924;48.830;9.262;2022-08-03T06:12:30;2.73;;;2.53;;
7759;SDS011;3924;48.830;9.262;2022-08-03T06:14:56;4.90;;;2.50;;
7759;SDS011;3924;48.830;9.262;2022-08-03T06:17:23;6.53;;;2.73;;
7759;SDS011;3924;48.830;9.262;2022-08-03T06:19:52;3.33;;;3.00;;
7759;SDS011;3924;48.830;9.262;2022-08-03T06:22:19;4.93;;;2.50;;
7759;SDS011;3924;48.830;9.262;2022-08-03T06:24:46;5.27;;;2.50;;
7759;SDS011;3924;48.830;9.262;2022-08-03T06:27:18;2.30;;;2.10;;
7759;SDS011;3924;48.830;9.262;2022-08-03T06:30:02;3.37;;;2.03;;
7759;SDS011;3924;48.830;9.262;2022-08-03T06:32:29;2.40;;;2.20;;
7759;SDS011;3924;48.830;9.262;2022-08-03T06:34:55;4.27;;;1.97;;
7759;SDS011;3924;48.830;9.262;2022-08-03T06:37:21;2.27;;;1.93;;
7759;SDS011;3924;48.830;9.262;2022-08-03T06:39:49;3.33;;;2.43;;
7759;SDS011;3924;48.830;9.262;2022-08-03T06:42:16;1.90;;;1.80;;
7759;SDS011;3924;48.830;9.262;2022-08-03T06:44:42;10.67;;;2.53;;
7759;SDS011;3924;48.830;9.262;2022-08-03T06:47:09;2.00;;;1.80;;
7759;SDS011;3924;48.830;9.262;2022-08-03T06:49:36;5.50;;;2.27;;
7759;SDS011;3924;48.830;9.262;2022-08-03T06:52:03;5.50;;;2.50;;
7759;SDS011;3924;48.830;9.262;2022-08-03T06:54:32;2.40;;;2.10;;
7759;SDS011;3924;48.830;9.262;2022-08-03T06:56:59;4.40;;;2.73;;
7759;SDS011;3924;48.830;9.262;2022-08-03T06:59:25;2.67;;;2.40;;
7759;SDS011;3924;48.830;9.262;2022-08-03T07:02:12;5.00;;;2.30;;
7759;SDS011;3924;48.830;9.262;2022-08-03T07:04:45;4.17;;;2.30;;
7759;SDS011;3924;48.830;9.262;2022-08-03T07:07:12;2.83;;;2.40;;
7759;SDS011;3924;48.830;9.262;2022-08-03T07:09:39;2.93;;;2.57;;
7759;SDS011;3924;48.830;9.262;2022-08-03T07:12:06;4.53;;;2.37;;
7759;SDS011;3924;48.830;9.262;2022-08-03T07:14:33;2.87;;;2.57;;
7759;SDS011;3924;48.830;9.262;2022-08-03T07:17:00;2.83;;;2.53;;
7759;SDS011;3924;48.830;9.262;2022-08-03T07:19:29;3.40;;;2.20;;
7759;SDS011;3924;48.830;9.262;2022-08-03T07:21:56;4.27;;;2.10;;
7759;SDS011;3924;48.830;9.262;2022-08-03T07:24:29;3.23;;;2.73;;
7759;SDS011;3924;48.830;9.262;2022-08-03T07:26:55;5.17;;;2.23;;
7759;SDS011;3924;48.830;9.262;2022-08-03T07:29:22;5.87;;;2.20;;
7759;SDS011;3924;48.830;9.262;2022-08-03T07:31:48;2.07;;;1.97;;
7759;SDS011;3924;48.830;9.262;2022-08-03T07:34:15;2.17;;;1.87;;
7759;SDS011;3924;48.830;9.262;2022-08-03T07:36:41;5.00;;;2.40;;
7759;SDS011;3924;48.830;9.262;2022-08-03T07:39:08;4.57;;;2.60;;
7759;SDS011;3924;48.830;9.262;2022-08-03T07:41:43;5.67;;;2.00;;
7759;SDS011;3924;48.830;9.262;2022-08-03T07:44:09;2.93;;;2.10;;
7759;SDS011;3924;48.830;9.262;2022-08-03T07:46:36;1.73;;;1.63;;
7759;SDS011;3924;48.830;9.262;2022-08-03T07:49:02;3.97;;;2.10;;
7759;SDS011;3924;48.830;9.262;2022-08-03T07:51:29;5.70;;;2.23;;
7759;SDS011;3924;48.830;9.262;2022-08-03T07:53:55;2.60;;;1.97;;
7759;SDS011;3924;48.830;9.262;2022-08-03T07:56:23;2.60;;;2.40;;
7759;SDS011;3924;48.830;9.262;2022-08-03T07:58:53;1.80;;;1.70;;
7759;SDS011;3924;48.830;9.262;2022-08-03T08:01:20;5.17;;;2.03;;
7759;SDS011;3924;48.830;9.262;2022-08-03T08:03:47;2.93;;;1.90;;
7759;SDS011;3924;48.830;9.262;2022-08-03T08:06:19;4.23;;;1.60;;
7759;SDS011;3924;48.830;9.262;2022-08-03T08:08:46;1.40;;;1.40;;
7759;SDS011;3924;48.830;9.262;2022-08-03T08:11:13;5.10;;;1.97;;
7759;SDS011;3924;48.830;9.262;2022-08-03T08:13:39;1.87;;;1.70;;
7759;SDS011;3924;48.830;9.262;2022-08-03T08:16:06;3.03;;;1.50;;
7759;SDS011;3924;48.830;9.262;2022-08-03T08:18:32;4.63;;;1.60;;
7759;SDS011;3924;48.830;9.262;2022-08-03T08:20:59;1.80;;;1.60;;
7759;SDS011;3924;48.830;9.262;2022-08-03T08:23:28;8.63;;;1.80;;
7759;SDS011;3924;48.830;9.262;2022-08-03T08:26:10;2.93;;;1.57;;
7759;SDS011;3924;48.830;9.262;2022-08-03T08:28:37;2.37;;;1.23;;
7759;SDS011;3924;48.830;9.262;2022-08-03T08:31:04;1.57;;;1.47;;
7759;SDS011;3924;48.830;9.262;2022-08-03T08:33:30;2.57;;;1.77;;
7759;SDS011;3924;48.830;9.262;2022-08-03T08:36:18;2.93;;;1.60;;
7759;SDS011;3924;48.830;9.262;2022-08-03T08:38:44;5.53;;;1.50;;
7759;SDS011;3924;48.830;9.262;2022-08-03T08:41:12;1.93;;;1.53;;
7759;SDS011;3924;48.830;9.262;2022-08-03T08:43:40;1.80;;;1.70;;
7759;SDS011;3924;48.830;9.262;2022-08-03T08:46:08;1.77;;;1.60;;
7759;SDS011;3924;48.830;9.262;2022-08-03T08:48:39;8.20;;;2.00;;
7759;SDS011;3924;48.830;9.262;2022-08-03T08:51:07;2.03;;;1.40;;
7759;SDS011;3924;48.830;9.262;2022-08-03T08:53:36;1.63;;;1.53;;
7759;SDS011;3924;48.830;9.262;2022-08-03T08:56:06;2.77;;;1.50;;
7759;SDS011;3924;48.830;9.262;2022-08-03T08:58:38;1.17;;;1.17;;
7759;SDS011;3924;48.830;9.262;2022-08-03T09:01:11;1.00;;;1.00;;
7759;SDS011;3924;48.830;9.262;2022-08-03T09:03:38;2.93;;;1.40;;
7759;SDS011;3924;48.830;9.262;2022-08-03T09:06:05;2.10;;;1.37;;
7759;SDS011;3924;48.830;9.262;2022-08-03T09:08:31;1.93;;;1.50;;
7759;SDS011;3924;48.830;9.262;2022-08-03T09:10:58;1.53;;;1.50;;
7759;SDS011;3924;48.830;9.262;2022-08-03T09:13:25;1.73;;;1.60;;
7759;SDS011;3924;48.830;9.262;2022-08-03T09:16:11;1.60;;;1.50;;
7759;SDS011;3924;48.830;9.262;2022-08-03T09:18:40;5.07;;;1.53;;
7759;SDS011;3924;48.830;9.262;2022-08-03T09:23:58;1.70;;;1.43;;
7759;SDS011;3924;48.830;9.262;2022-08-03T09:26:29;1.60;;;1.50;;
7759;SDS011;3924;48.830;9.262;2022-08-03T09:29:00;2.10;;;1.60;;
7759;SDS011;3924;48.830;9.262;2022-08-03T09:34:09;2.67;;;1.60;;
7759;SDS011;3924;48.830;9.262;2022-08-03T09:36:42;1.13;;;1.13;;
7759;SDS011;3924;48.830;9.262;2022-08-03T09:39:11;1.47;;;1.20;;
7759;SDS011;3924;48.830;9.262;2022-08-03T09:41:40;1.37;;;1.30;;
7759;SDS011;3924;48.830;9.262;2022-08-03T09:44:08;1.40;;;1.30;;
7759;SDS011;3924;48.830;9.262;2022-08-03T09:46:51;1.80;;;1.20;;
7759;SDS011;3924;48.830;9.262;2022-08-03T09:49:20;1.57;;;1.40;;
7759;SDS011;3924;48.830;9.262;2022-08-03T09:51:48;8.63;;;1.67;;
7759;SDS011;3924;48.830;9.262;2022-08-03T09:54:34;1.30;;;1.20;;
7759;SDS011;3924;48.830;9.262;2022-08-03T09:57:01;1.10;;;1.10;;
7759;SDS011;3924;48.830;9.262;2022-08-03T09:59:28;1.77;;;1.33;;
7759;SDS011;3924;48.830;9.262;2022-08-03T10:01:57;2.50;;;1.47;;
7759;SDS011;3924;48.830;9.262;2022-08-03T10:04:25;1.40;;;1.30;;
7759;SDS011;3924;48.830;9.262;2022-08-03T10:09:30;1.27;;;1.20;;
7759;SDS011;3924;48.830;9.262;2022-08-03T10:11:57;1.57;;;1.50;;
7759;SDS011;3924;48.830;9.262;2022-08-03T10:14:33;1.20;;;1.20;;
7759;SDS011;3924;48.830;9.262;2022-08-03T10:17:02;1.10;;;1.10;;
7759;SDS011;3924;48.830;9.262;2022-08-03T10:19:29;2.93;;;1.00;;
7759;SDS011;3924;48.830;9.262;2022-08-03T10:21:57;6.93;;;1.20;;
7759;SDS011;3924;48.830;9.262;2022-08-03T10:24:29;1.23;;;1.20;;
7759;SDS011;3924;48.830;9.262;2022-08-03T10:27:00;0.90;;;0.90;;
7759;SDS011;3924;48.830;9.262;2022-08-03T10:29:29;1.20;;;1.10;;
7759;SDS011;3924;48.830;9.262;2022-08-03T10:32:02;1.53;;;1.30;;
7759;SDS011;3924;48.830;9.262;2022-08-03T10:34:36;1.20;;;1.07;;
7759;SDS011;3924;48.830;9.262;2022-08-03T10:37:10;1.17;;;1.13;;
7759;SDS011;3924;48.830;9.262;2022-08-03T10:39:38;1.90;;;1.10;;
7759;SDS011;3924;48.830;9.262;2022-08-03T10:42:24;1.60;;;1.00;;
7759;SDS011;3924;48.830;9.262;2022-08-03T10:44:55;1.03;;;0.93;;
7759;SDS011;3924;48.830;9.262;2022-08-03T10:47:34;1.90;;;1.20;;
7759;SDS011;3924;48.830;9.262;2022-08-03T10:50:02;1.13;;;1.13;;
7759;SDS011;3924;48.830;9.262;2022-08-03T10:52:29;1.27;;;1.13;;
7759;SDS011;3924;48.830;9.262;2022-08-03T10:55:01;1.13;;;1.03;;
7759;SDS011;3924;48.830;9.262;2022-08-03T11:00:24;1.40;;;1.30;;
7759;SDS011;3924;48.830;9.262;2022-08-03T11:03:01;1.40;;;1.10;;
7759;SDS011;3924;48.830;9.262;2022-08-03T11:05:35;1.10;;;1.10;;
7759;SDS011;3924;48.830;9.262;2022-08-03T11:10:54;1.00;;;1.00;;
7759;SDS011;3924;48.830;9.262;2022-08-03T11:13:28;1.17;;;1.00;;
7759;SDS011;3924;48.830;9.262;2022-08-03T11:15:57;1.43;;;1.33;;
7759;SDS011;3924;48.830;9.262;2022-08-03T11:18:29;0.83;;;0.83;;
7759;SDS011;3924;48.830;9.262;2022-08-03T11:20:56;1.43;;;1.33;;
7759;SDS011;3924;48.830;9.262;2022-08-03T11:26:31;1.00;;;1.00;;
7759;SDS011;3924;48.830;9.262;2022-08-03T11:29:25;1.40;;;1.30;;
7759;SDS011;3924;48.830;9.262;2022-08-03T11:31:54;1.80;;;1.10;;
7759;SDS011;3924;48.830;9.262;2022-08-03T11:34:21;1.37;;;1.23;;
7759;SDS011;3924;48.830;9.262;2022-08-03T11:39:52;1.63;;;1.47;;
7759;SDS011;3924;48.830;9.262;2022-08-03T11:44:49;1.57;;;1.27;;
7759;SDS011;3924;48.830;9.262;2022-08-03T11:47:21;1.57;;;1.47;;
7759;SDS011;3924;48.830;9.262;2022-08-03T11:49:56;2.00;;;1.20;;
7759;SDS011;3924;48.830;9.262;2022-08-03T11:52:24;1.43;;;1.17;;
7759;SDS011;3924;48.830;9.262;2022-08-03T11:54:53;1.10;;;1.10;;
7759;SDS011;3924;48.830;9.262;2022-08-03T12:00:22;1.20;;;1.20;;
7759;SDS011;3924;48.830;9.262;2022-08-03T12:05:59;1.23;;;1.10;;
7759;SDS011;3924;48.830;9.262;2022-08-03T12:08:30;1.37;;;1.30;;
7759;SDS011;3924;48.830;9.262;2022-08-03T12:10:59;1.10;;;1.10;;
7759;SDS011;3924;48.830;9.262;2022-08-03T12:16:30;1.37;;;1.37;;
7759;SDS011;3924;48.830;9.262;2022-08-03T12:18:57;1.57;;;1.47;;
7759;SDS011;3924;48.830;9.262;2022-08-03T12:21:26;1.27;;;1.20;;
7759;SDS011;3924;48.830;9.262;2022-08-03T12:23:57;1.30;;;1.30;;
7759;SDS011;3924;48.830;9.262;2022-08-03T12:26:28;1.40;;;1.30;;
7759;SDS011;3924;48.830;9.262;2022-08-03T12:28:55;1.27;;;1.27;;
7759;SDS011;3924;48.830;9.262;2022-08-03T12:31:22;1.33;;;1.23;;
7759;SDS011;3924;48.830;9.262;2022-08-03T12:33:53;1.40;;;1.30;;
7759;SDS011;3924;48.830;9.262;2022-08-03T12:36:24;1.10;;;1.10;;
7759;SDS011;3924;48.830;9.262;2022-08-03T12:38:59;1.80;;;1.30;;
7759;SDS011;3924;48.830;9.262;2022-08-03T12:41:31;2.20;;;1.50;;
7759;SDS011;3924;48.830;9.262;2022-08-03T12:44:05;2.13;;;1.30;;
7759;SDS011;3924;48.830;9.262;2022-08-03T12:46:34;1.43;;;1.30;;
7759;SDS011;3924;48.830;9.262;2022-08-03T12:54:09;1.30;;;1.20;;
7759;SDS011;3924;48.830;9.262;2022-08-03T12:59:26;3.07;;;1.37;;
7759;SDS011;3924;48.830;9.262;2022-08-03T13:02:00;1.30;;;1.20;;
7759;SDS011;3924;48.830;9.262;2022-08-03T13:04:33;1.30;;;1.20;;
7759;SDS011;3924;48.830;9.262;2022-08-03T13:07:02;1.50;;;1.40;;
7759;SDS011;3924;48.830;9.262;2022-08-03T13:09:49;1.40;;;1.30;;
7759;SDS011;3924;48.830;9.262;2022-08-03T13:14:48;1.20;;;1.20;;
7759;SDS011;3924;48.830;9.262;2022-08-03T13:17:17;1.23;;;1.13;;
7759;SDS011;3924;48.830;9.262;2022-08-03T13:19:45;1.10;;;1.10;;
7759;SDS011;3924;48.830;9.262;2022-08-03T13:22:13;1.37;;;1.33;;
7759;SDS011;3924;48.830;9.262;2022-08-03T13:24:43;1.50;;;1.27;;
7759;SDS011;3924;48.830;9.262;2022-08-03T13:27:11;1.20;;;1.20;;
7759;SDS011;3924;48.830;9.262;2022-08-03T13:29:58;1.10;;;1.00;;
7759;SDS011;3924;48.830;9.262;2022-08-03T13:32:24;1.10;;;1.10;;
7759;SDS011;3924;48.830;9.262;2022-08-03T13:34:51;1.20;;;1.20;;
7759;SDS011;3924;48.830;9.262;2022-08-03T13:37:17;1.33;;;1.03;;
7759;SDS011;3924;48.830;9.262;2022-08-03T13:39:44;1.10;;;1.10;;
7759;SDS011;3924;48.830;9.262;2022-08-03T13:42:25;1.30;;;1.17;;
7759;SDS011;3924;48.830;9.262;2022-08-03T13:44:53;4.77;;;1.20;;
7759;SDS011;3924;48.830;9.262;2022-08-03T13:47:19;1.47;;;1.00;;
7759;SDS011;3924;48.830;9.262;2022-08-03T13:49:46;1.23;;;1.13;;
7759;SDS011;3924;48.830;9.262;2022-08-03T13:52:27;1.47;;;1.27;;
7759;SDS011;3924;48.830;9.262;2022-08-03T13:54:57;1.23;;;1.10;;
7759;SDS011;3924;48.830;9.262;2022-08-03T13:57:24;2.40;;;1.30;;
7759;SDS011;3924;48.830;9.262;2022-08-03T14:00:10;5.17;;;1.40;;
7759;SDS011;3924;48.830;9.262;2022-08-03T14:02:37;2.50;;;1.20;;
7759;SDS011;3924;48.830;9.262;2022-08-03T14:05:04;1.90;;;1.10;;
7759;SDS011;3924;48.830;9.262;2022-08-03T14:07:30;1.03;;;1.00;;
7759;SDS011;3924;48.830;9.262;2022-08-03T14:09:57;0.97;;;0.97;;
7759;SDS011;3924;48.830;9.262;2022-08-03T14:12:23;1.00;;;1.00;;
7759;SDS011;3924;48.830;9.262;2022-08-03T14:14:50;1.30;;;1.30;;
7759;SDS011;3924;48.830;9.262;2022-08-03T14:17:16;1.83;;;1.10;;
7759;SDS011;3924;48.830;9.262;2022-08-03T14:19:43;0.90;;;0.90;;
7759;SDS011;3924;48.830;9.262;2022-08-03T14:22:19;1.43;;;1.27;;
7759;SDS011;3924;48.830;9.262;2022-08-03T14:24:46;1.10;;;1.03;;
7759;SDS011;3924;48.830;9.262;2022-08-03T14:27:14;2.03;;;1.10;;
7759;SDS011;3924;48.830;9.262;2022-08-03T14:29:41;2.00;;;1.30;;
7759;SDS011;3924;48.830;9.262;2022-08-03T14:32:08;0.90;;;0.90;;
7759;SDS011;3924;48.830;9.262;2022-08-03T14:34:38;1.27;;;1.17;;
7759;SDS011;3924;48.830;9.262;2022-08-03T14:37:07;1.00;;;1.00;;
7759;SDS011;3924;48.830;9.262;2022-08-03T14:39:33;1.20;;;1.20;;
7759;SDS011;3924;48.830;9.262;2022-08-03T14:42:22;1.27;;;1.23;;
7759;SDS011;3924;48.830;9.262;2022-08-03T14:44:48;4.33;;;1.47;;
7759;SDS011;3924;48.830;9.262;2022-08-03T14:47:15;0.90;;;0.90;;
7759;SDS011;3924;48.830;9.262;2022-08-03T14:49:41;4.47;;;1.27;;
7759;SDS011;3924;48.830;9.262;2022-08-03T14:52:29;2.20;;;1.30;;
7759;SDS011;3924;48.830;9.262;2022-08-03T14:54:56;1.50;;;1.40;;
7759;SDS011;3924;48.830;9.262;2022-08-03T14:57:23;1.10;;;1.10;;
7759;SDS011;3924;48.830;9.262;2022-08-03T14:59:54;2.27;;;1.00;;
7759;SDS011;3924;48.830;9.262;2022-08-03T15:02:22;3.23;;;1.13;;
7759;SDS011;3924;48.830;9.262;2022-08-03T15:04:50;1.00;;;1.00;;
7759;SDS011;3924;48.830;9.262;2022-08-03T15:07:17;3.53;;;1.00;;
7759;SDS011;3924;48.830;9.262;2022-08-03T15:09:44;1.23;;;0.97;;
7759;SDS011;3924;48.830;9.262;2022-08-03T15:12:10;1.10;;;1.00;;
7759;SDS011;3924;48.830;9.262;2022-08-03T15:14:37;0.90;;;0.90;;
7759;SDS011;3924;48.830;9.262;2022-08-03T15:17:04;1.00;;;1.00;;
7759;SDS011;3924;48.830;9.262;2022-08-03T15:19:31;1.30;;;1.30;;
7759;SDS011;3924;48.830;9.262;2022-08-03T15:22:17;1.07;;;1.00;;
7759;SDS011;3924;48.830;9.262;2022-08-03T15:24:50;1.10;;;1.10;;
7759;SDS011;3924;48.830;9.262;2022-08-03T15:27:16;2.07;;;1.10;;
7759;SDS011;3924;48.830;9.262;2022-08-03T15:29:43;1.30;;;1.27;;
7759;SDS011;3924;48.830;9.262;2022-08-03T15:32:30;2.30;;;1.60;;
7759;SDS011;3924;48.830;9.262;2022-08-03T15:34:56;1.30;;;1.20;;
7759;SDS011;3924;48.830;9.262;2022-08-03T15:37:23;1.03;;;1.03;;
7759;SDS011;3924;48.830;9.262;2022-08-03T15:39:51;1.03;;;1.03;;
7759;SDS011;3924;48.830;9.262;2022-08-03T15:42:25;1.30;;;1.20;;
7759;SDS011;3924;48.830;9.262;2022-08-03T15:44:52;2.17;;;1.20;;
7759;SDS011;3924;48.830;9.262;2022-08-03T15:47:19;0.90;;;0.90;;
7759;SDS011;3924;48.830;9.262;2022-08-03T15:49:46;1.42;;;1.15;;
7759;SDS011;3924;48.830;9.262;2022-08-03T15:52:13;0.90;;;0.90;;
7759;SDS011;3924;48.830;9.262;2022-08-03T15:54:39;2.65;;;1.38;;
7759;SDS011;3924;48.830;9.262;2022-08-03T15:57:06;1.30;;;1.10;;
7759;SDS011;3924;48.830;9.262;2022-08-03T15:59:32;0.67;;;0.67;;
7759;SDS011;3924;48.830;9.262;2022-08-03T16:01:59;1.75;;;1.10;;
7759;SDS011;3924;48.830;9.262;2022-08-03T16:04:26;1.07;;;1.07;;
7759;SDS011;3924;48.830;9.262;2022-08-03T16:06:52;1.03;;;1.03;;
7759;SDS011;3924;48.830;9.262;2022-08-03T16:09:19;0.93;;;0.93;;
7759;SDS011;3924;48.830;9.262;2022-08-03T16:12:05;1.20;;;1.20;;
7759;SDS011;3924;48.830;9.262;2022-08-03T16:14:41;1.10;;;1.10;;
7759;SDS011;3924;48.830;9.262;2022-08-03T16:17:17;1.13;;;1.00;;
7759;SDS011;3924;48.830;9.262;2022-08-03T16:19:44;1.10;;;1.00;;
7759;SDS011;3924;48.830;9.262;2022-08-03T16:22:11;1.37;;;1.27;;
7759;SDS011;3924;48.830;9.262;2022-08-03T16:24:39;1.77;;;1.20;;
7759;SDS011;3924;48.830;9.262;2022-08-03T16:27:06;1.03;;;1.03;;
7759;SDS011;3924;48.830;9.262;2022-08-03T16:29:52;0.90;;;0.90;;
7759;SDS011;3924;48.830;9.262;2022-08-03T16:32:19;1.13;;;1.03;;